createdAt,value
2023-04-12T00:02:18.694Z,9.63
2023-04-12T00:07:21.697Z,9.73
2023-04-12T00:12:25.957Z,9.71
2023-04-12T00:17:30.237Z,9.98
2023-04-12T00:22:33.065Z,9.48
2023-04-12T00:27:36.144Z,9.71
2023-04-12T00:32:40.732Z,9.51
2023-04-12T00:37:43.673Z,9.76
2023-04-12T00:42:46.903Z,9.46
2023-04-12T00:47:51.202Z,9.62
2023-04-12T00:52:55.493Z,9.34
2023-04-12T00:57:59.367Z,9.70
2023-04-12T01:03:05.373Z,9.19
2023-04-12T01:08:15.030Z,9.16
2023-04-12T01:13:31.553Z,9.38
2023-04-12T01:18:45.699Z,8.94
2023-04-12T01:24:13.793Z,9.05
2023-04-12T01:29:20.721Z,9.36
2023-04-12T01:34:24.413Z,9.21
2023-04-12T01:39:27.491Z,9.14
2023-04-12T01:44:31.810Z,9.18
2023-04-12T01:49:41.629Z,9.31
2023-04-12T01:54:50.632Z,9.17
2023-04-12T01:59:55.146Z,9.05
2023-04-12T02:04:58.067Z,9.01
2023-04-12T02:10:00.893Z,9.00
2023-04-12T02:15:08.060Z,8.93
2023-04-12T02:20:12.083Z,8.97
2023-04-12T02:25:18.116Z,9.27
2023-04-12T02:30:23.078Z,9.11
2023-04-12T02:35:29.262Z,8.99
2023-04-12T02:40:40.800Z,8.90
2023-04-12T02:45:46.347Z,9.09
2023-04-12T02:50:49.291Z,8.98
2023-04-12T02:55:57.321Z,9.12
2023-04-12T03:01:07.587Z,9.20
2023-04-12T03:06:25.033Z,9.02
2023-04-12T03:11:28.024Z,9.10
2023-04-12T03:16:33.127Z,8.90
2023-04-12T03:21:45.694Z,9.26
2023-04-12T03:26:50.110Z,9.04
2023-04-12T03:31:59.628Z,9.20
2023-04-12T03:37:04.492Z,9.32
2023-04-12T03:42:32.452Z,9.24
2023-04-12T03:47:45.872Z,8.95
2023-04-12T03:52:50.499Z,9.11
2023-04-12T03:57:53.856Z,9.42
2023-04-12T04:03:03.193Z,9.16
2023-04-12T04:08:08.962Z,9.19
2023-04-12T04:13:24.244Z,9.63
2023-04-12T04:18:35.986Z,9.36
2023-04-12T04:23:40.162Z,9.19
2023-04-12T04:28:45.953Z,9.07
2023-04-12T04:33:54.602Z,9.28
2023-04-12T04:39:05.763Z,9.57
2023-04-12T04:44:14.389Z,9.61
2023-04-12T04:49:30.119Z,9.67
2023-04-12T04:54:40.097Z,9.51
2023-04-12T04:59:44.186Z,9.62
2023-04-12T05:04:56.398Z,9.60
2023-04-12T05:10:01.857Z,9.53
2023-04-12T05:15:11.634Z,9.81
2023-04-12T05:20:18.466Z,9.78
2023-04-12T05:25:21.782Z,9.68
2023-04-12T05:30:34.434Z,9.79
2023-04-12T05:35:39.790Z,9.87
2023-04-12T05:40:44.031Z,10.04
2023-04-12T05:45:47.477Z,10.00
2023-04-12T05:50:55.359Z,10.13
2023-04-12T05:55:59.401Z,10.18
2023-04-12T06:01:02.424Z,10.07
2023-04-12T06:06:07.626Z,10.26
2023-04-12T06:11:12.076Z,10.38
2023-04-12T06:16:15.576Z,10.32
2023-04-12T06:21:20.320Z,10.33
2023-04-12T06:26:23.221Z,10.14
2023-04-12T07:24:53.041Z,11.38
2023-04-12T07:29:56.054Z,10.99
2023-04-12T07:34:59.278Z,10.97
2023-04-12T07:40:03.586Z,11.28
2023-04-12T07:45:07.258Z,11.22
2023-04-12T07:50:13.066Z,11.52
2023-04-12T07:55:17.631Z,11.93
2023-04-12T08:00:21.607Z,12.58
2023-04-12T08:05:24.474Z,12.19
2023-04-12T08:10:28.704Z,12.31
2023-04-12T08:15:31.545Z,12.03
2023-04-12T08:20:34.343Z,12.53
2023-04-12T08:25:38.556Z,12.63
2023-04-12T08:30:41.335Z,12.38
2023-04-12T08:35:44.142Z,12.43
2023-04-12T08:40:48.245Z,12.78
2023-04-12T08:45:51.190Z,12.93
2023-04-12T08:50:54.429Z,13.31
2023-04-12T08:55:58.551Z,13.15
2023-04-12T09:01:01.704Z,13.27
2023-04-12T09:06:04.740Z,13.25
2023-04-12T09:16:49.333Z,13.34
2023-04-12T09:21:56.456Z,13.27
2023-04-12T09:27:03.938Z,12.87
2023-04-12T09:32:09.823Z,12.55
2023-04-12T09:37:16.302Z,12.64
2023-04-12T09:47:40.420Z,12.58
2023-04-12T09:52:43.704Z,12.89
2023-04-12T09:57:47.967Z,12.28
2023-04-12T10:02:54.109Z,12.66
2023-04-12T10:07:57.827Z,12.58
2023-04-12T10:13:03.644Z,13.05
2023-04-12T10:18:08.135Z,12.88
2023-04-12T10:23:12.175Z,13.34
2023-04-12T10:28:16.460Z,13.13
2023-04-12T10:33:26.211Z,13.33
2023-04-12T10:38:35.276Z,13.51
2023-04-12T10:43:39.298Z,13.28
2023-04-12T10:48:52.843Z,13.23
2023-04-12T10:54:35.523Z,13.43
2023-04-12T10:59:57.057Z,13.53
2023-04-12T11:05:10.408Z,13.43
2023-04-12T11:10:27.615Z,13.43
2023-04-12T11:15:33.989Z,13.71
2023-04-12T11:20:40.380Z,13.89
2023-04-12T11:25:43.150Z,13.99
2023-04-12T11:30:53.074Z,14.23
2023-04-12T11:35:56.102Z,13.61
2023-04-12T11:40:59.659Z,13.86
2023-04-12T11:46:04.202Z,14.13
2023-04-12T11:51:20.346Z,14.18
2023-04-12T11:56:23.964Z,14.11
2023-04-12T12:01:29.316Z,14.03
2023-04-12T12:06:32.723Z,14.09
2023-04-12T12:11:35.670Z,13.95
2023-04-12T12:16:41.793Z,13.49
2023-04-12T12:21:44.615Z,13.03
2023-04-12T12:26:50.418Z,13.01
2023-04-12T12:31:54.824Z,12.82
2023-04-12T12:36:57.890Z,13.04
2023-04-12T12:42:00.708Z,12.93
2023-04-12T12:47:13.934Z,12.75
2023-04-12T12:52:18.037Z,12.48
2023-04-12T12:57:21.043Z,12.47
2023-04-12T13:02:25.417Z,12.72
2023-04-12T13:07:28.471Z,12.06
2023-04-12T13:12:31.273Z,11.97
2023-04-12T13:17:35.762Z,11.93
2023-04-12T13:22:38.640Z,12.16
2023-04-12T13:27:41.614Z,12.05
2023-04-12T13:32:45.842Z,12.24
2023-04-12T13:37:48.697Z,12.20
2023-04-12T13:42:51.554Z,12.77
2023-04-12T13:47:56.064Z,13.13
2023-04-12T13:52:59.096Z,13.42
2023-04-12T13:58:01.998Z,13.70
2023-04-12T14:03:06.571Z,13.46
2023-04-12T14:08:09.487Z,12.42
2023-04-12T14:13:12.373Z,12.11
2023-04-12T14:18:16.978Z,12.21
2023-04-12T14:23:20.456Z,12.09
2023-04-12T14:28:24.275Z,11.81
2023-04-12T14:33:29.405Z,11.65
2023-04-12T14:38:32.258Z,12.17
2023-04-12T14:43:35.170Z,12.14
2023-04-12T14:48:39.508Z,11.97
2023-04-12T14:53:43.467Z,12.22
2023-04-12T14:58:46.364Z,12.37
2023-04-12T15:03:51.745Z,12.87
2023-04-12T15:08:55.371Z,11.89
2023-04-12T15:13:58.457Z,12.08
2023-04-12T15:19:10.425Z,12.17
2023-04-12T15:24:16.521Z,12.28
2023-04-12T15:29:21.280Z,12.13
2023-04-12T15:34:25.934Z,12.49
2023-04-12T15:39:49.351Z,12.09
2023-04-12T15:44:52.438Z,11.86
2023-04-12T15:49:56.821Z,12.01
2023-04-12T15:54:59.955Z,12.17
2023-04-12T16:00:12.706Z,12.00
2023-04-12T16:05:37.404Z,11.81
2023-04-12T16:10:41.403Z,12.01
2023-04-12T16:15:44.664Z,12.01
2023-04-12T16:20:48.922Z,11.88
2023-04-12T16:25:51.915Z,11.75
2023-04-12T16:31:16.311Z,11.46
2023-04-12T16:36:23.558Z,11.51
2023-04-12T16:41:26.717Z,11.32
2023-04-12T16:46:29.777Z,11.15
2023-04-12T16:51:36.920Z,11.15
2023-04-12T16:56:59.443Z,11.31
2023-04-12T17:02:02.299Z,11.31
2023-04-12T17:07:06.584Z,11.46
2023-04-12T17:12:09.607Z,11.23
2023-04-12T17:17:12.640Z,11.28
2023-04-12T17:22:35.379Z,11.19
2023-04-12T17:27:38.383Z,11.24
2023-04-12T17:32:42.495Z,11.45
2023-04-12T17:37:47.229Z,11.29
2023-04-12T17:42:50.097Z,11.06
2023-04-12T17:48:14.385Z,11.13
2023-04-12T17:53:18.621Z,11.32
2023-04-12T17:58:21.632Z,11.32
2023-04-12T18:03:24.826Z,11.50
2023-04-12T18:08:29.283Z,10.99
2023-04-12T18:13:50.689Z,10.85
2023-04-12T18:18:54.814Z,10.83
2023-04-12T18:23:59.551Z,10.91
2023-04-12T18:29:02.659Z,10.98
2023-04-12T18:34:05.492Z,10.82
2023-04-12T18:39:30.016Z,10.56
2023-04-12T18:44:34.291Z,10.42
2023-04-12T18:49:55.050Z,10.40
2023-04-12T18:54:59.226Z,10.62
2023-04-12T19:00:05.463Z,10.57
2023-04-12T19:05:23.866Z,10.41
2023-04-12T19:10:30.804Z,10.52
2023-04-12T19:15:35.955Z,10.69
2023-04-12T19:20:38.759Z,10.38
2023-04-12T19:25:43.456Z,10.32
2023-04-12T19:30:46.312Z,10.20
2023-04-12T19:35:49.995Z,10.04
2023-04-12T19:40:54.864Z,10.11
2023-04-12T19:45:58.538Z,10.30
2023-04-12T19:51:01.520Z,10.35
2023-04-12T19:56:15.061Z,9.98
2023-04-12T20:01:18.794Z,10.06
2023-04-12T20:06:23.590Z,10.09
2023-04-12T20:11:27.896Z,10.13
2023-04-12T20:16:32.968Z,10.13
2023-04-12T20:21:49.672Z,9.84
2023-04-12T20:26:53.868Z,9.67
2023-04-12T20:32:12.462Z,9.47
2023-04-12T20:37:15.696Z,9.51
2023-04-12T20:42:20.639Z,9.72
2023-04-12T20:47:27.628Z,9.46
2023-04-12T20:52:31.220Z,9.07
2023-04-12T20:57:35.983Z,9.17
2023-04-12T21:02:39.706Z,9.46
2023-04-12T21:07:42.729Z,9.39
2023-04-12T21:13:04.061Z,9.31
2023-04-12T21:18:07.106Z,9.22
2023-04-12T21:23:10.121Z,9.49
2023-04-12T21:28:14.932Z,9.15
2023-04-12T21:33:21.826Z,9.25
2023-04-12T21:38:39.472Z,9.19
2023-04-12T21:43:45.020Z,9.33
2023-04-12T21:48:48.034Z,9.20
2023-04-12T21:53:51.063Z,9.02
2023-04-12T21:58:57.202Z,9.14
2023-04-12T22:04:15.902Z,9.17
2023-04-12T22:09:18.830Z,9.26
2023-04-12T22:14:23.876Z,9.02
2023-04-12T22:19:26.774Z,9.02
2023-04-12T22:24:30.724Z,8.52
2023-04-12T22:29:53.479Z,8.78
2023-04-12T22:35:08.176Z,8.63
2023-04-12T22:40:13.688Z,8.12
2023-04-12T22:45:18.519Z,8.05
2023-04-12T22:50:21.897Z,8.01
2023-04-12T22:55:29.949Z,8.25
2023-04-12T23:00:35.182Z,7.98
2023-04-12T23:05:38.584Z,8.02
2023-04-12T23:10:42.068Z,7.58
2023-04-12T23:15:47.312Z,7.34
2023-04-12T23:21:05.665Z,7.17
2023-04-12T23:26:09.960Z,7.66
2023-04-12T23:31:15.172Z,7.41
2023-04-12T23:36:21.854Z,7.69
2023-04-12T23:41:24.698Z,7.62
2023-04-12T23:46:43.040Z,7.85
2023-04-12T23:51:45.973Z,8.09
2023-04-12T23:56:48.825Z,7.83
